createdAt,value
2018-05-27T00:00:18.497Z,81.58
2018-05-27T00:02:46.086Z,81.59
2018-05-27T00:05:13.673Z,81.51
2018-05-27T00:07:41.292Z,81.45
2018-05-27T00:10:08.954Z,81.94
2018-05-27T00:12:36.587Z,81.43
2018-05-27T00:15:04.255Z,81.57
2018-05-27T00:17:31.845Z,81.57
2018-05-27T00:19:59.473Z,82.44
2018-05-27T00:22:27.058Z,83.31
2018-05-27T00:24:54.880Z,83.22
2018-05-27T00:27:22.475Z,83.25
2018-05-27T00:29:50.098Z,84.12
2018-05-27T00:32:17.685Z,83.65
2018-05-27T00:34:45.386Z,84.50
2018-05-27T00:37:12.978Z,84.86
2018-05-27T00:39:41.529Z,85.37
2018-05-27T00:42:09.162Z,85.50
2018-05-27T00:44:36.789Z,86.26
2018-05-27T00:47:04.369Z,86.13
2018-05-27T00:49:31.948Z,86.44
2018-05-27T00:51:59.538Z,86.74
2018-05-27T00:54:27.122Z,86.27
2018-05-27T00:56:54.777Z,85.27
2018-05-27T00:59:22.365Z,85.32
2018-05-27T01:01:49.998Z,85.80
2018-05-27T01:04:17.728Z,85.94
2018-05-27T01:06:45.310Z,86.31
2018-05-27T01:09:12.934Z,85.60
2018-05-27T01:11:40.517Z,86.02
2018-05-27T01:14:08.109Z,86.35
2018-05-27T01:16:35.758Z,86.05
2018-05-27T01:19:03.347Z,85.56
2018-05-27T01:21:30.936Z,85.74
2018-05-27T01:23:58.525Z,85.23
2018-05-27T01:26:26.168Z,85.26
2018-05-27T01:28:53.866Z,85.57
2018-05-27T01:31:21.458Z,84.88
2018-05-27T01:33:49.046Z,85.08
2018-05-27T01:36:16.632Z,85.33
2018-05-27T01:38:44.217Z,85.70
2018-05-27T01:41:11.847Z,85.38
2018-05-27T01:43:39.434Z,85.24
2018-05-27T01:46:07.032Z,85.25
2018-05-27T01:48:34.626Z,85.44
2018-05-27T01:51:02.214Z,85.01
2018-05-27T01:53:29.802Z,84.59
2018-05-27T01:55:57.386Z,84.46
2018-05-27T01:58:25.074Z,84.40
2018-05-27T02:00:52.657Z,84.30
2018-05-27T02:03:20.244Z,84.84
2018-05-27T02:05:47.827Z,85.13
2018-05-27T02:08:15.517Z,86.32
2018-05-27T02:10:43.106Z,86.58
2018-05-27T02:13:10.692Z,86.74
2018-05-27T02:15:38.285Z,87.13
2018-05-27T02:18:05.874Z,87.90
2018-05-27T02:20:33.489Z,87.88
2018-05-27T02:23:01.092Z,87.74
2018-05-27T02:25:28.685Z,88.23
2018-05-27T02:27:56.272Z,88.98
2018-05-27T02:30:23.860Z,89.17
2018-05-27T02:32:51.460Z,88.97
2018-05-27T02:35:19.049Z,88.94
2018-05-27T02:37:46.640Z,88.56
2018-05-27T02:40:14.235Z,88.89
2018-05-27T02:42:41.831Z,89.37
2018-05-27T02:45:09.419Z,89.19
2018-05-27T02:47:37.006Z,88.79
2018-05-27T02:50:04.594Z,89.43
2018-05-27T02:52:32.176Z,89.72
2018-05-27T02:54:59.763Z,89.93
2018-05-27T02:57:27.353Z,90.30
2018-05-27T02:59:54.947Z,90.33
2018-05-27T03:02:22.534Z,89.75
2018-05-27T03:04:50.164Z,89.89
2018-05-27T03:07:17.805Z,90.10
2018-05-27T03:09:45.498Z,89.82
2018-05-27T03:12:13.087Z,90.30
2018-05-27T03:14:40.673Z,90.31
2018-05-27T03:17:08.296Z,90.84
2018-05-27T03:19:35.909Z,90.52
2018-05-27T03:22:03.486Z,91.26
2018-05-27T03:24:31.142Z,91.02
2018-05-27T03:26:58.771Z,91.07
2018-05-27T03:29:26.356Z,91.34
2018-05-27T03:31:53.946Z,90.95
2018-05-27T03:34:21.574Z,91.30
2018-05-27T03:36:49.163Z,91.29
2018-05-27T03:39:16.753Z,91.31
2018-05-27T03:41:44.398Z,91.50
2018-05-27T03:44:11.985Z,91.57
2018-05-27T03:46:39.618Z,91.67
2018-05-27T03:49:07.212Z,91.95
2018-05-27T03:51:34.798Z,91.82
2018-05-27T03:54:02.399Z,91.69
2018-05-27T03:56:29.983Z,91.75
2018-05-27T03:58:57.570Z,91.92
2018-05-27T04:01:25.163Z,92.37
2018-05-27T04:04:04.590Z,91.99
2018-05-27T04:06:44.090Z,92.10
2018-05-27T04:09:11.682Z,92.28
2018-05-27T04:11:39.363Z,91.86
2018-05-27T04:14:07.017Z,91.94
2018-05-27T04:16:34.690Z,91.78
2018-05-27T04:19:02.274Z,91.28
2018-05-27T04:21:29.855Z,90.92
2018-05-27T04:23:57.548Z,90.26
2018-05-27T04:26:25.134Z,89.73
2018-05-27T04:28:52.758Z,89.63
2018-05-27T04:31:20.343Z,89.23
2018-05-27T04:33:47.965Z,88.99
2018-05-27T04:36:15.586Z,88.87
2018-05-27T04:38:43.170Z,89.02
2018-05-27T04:41:10.757Z,89.29
2018-05-27T04:43:38.337Z,89.31
2018-05-27T04:46:05.931Z,89.70
2018-05-27T04:48:33.617Z,90.57
2018-05-27T04:51:01.249Z,90.07
2018-05-27T04:53:28.916Z,89.32
2018-05-27T04:55:57.205Z,88.91
2018-05-27T04:58:24.826Z,88.40
2018-05-27T05:00:52.446Z,87.76
2018-05-27T05:03:20.029Z,87.94
2018-05-27T05:05:47.618Z,86.41
2018-05-27T05:08:15.207Z,86.22
2018-05-27T05:10:42.893Z,86.65
2018-05-27T05:13:10.558Z,85.94
2018-05-27T05:15:38.151Z,86.04
2018-05-27T05:18:05.782Z,85.90
2018-05-27T05:20:33.393Z,84.92
2018-05-27T05:23:00.983Z,84.47
2018-05-27T05:25:28.667Z,84.31
2018-05-27T05:27:56.248Z,85.00
2018-05-27T05:30:23.892Z,84.08
2018-05-27T05:32:51.482Z,85.27
2018-05-27T05:35:19.763Z,83.37
2018-05-27T05:37:47.353Z,82.79
2018-05-27T05:40:15.031Z,81.65
2018-05-27T05:42:42.723Z,82.25
2018-05-27T05:45:10.310Z,80.56
2018-05-27T05:47:38.014Z,80.60
2018-05-27T05:50:06.073Z,79.77
2018-05-27T05:52:34.070Z,79.93
2018-05-27T05:55:01.655Z,77.98
2018-05-27T05:57:29.241Z,78.26
2018-05-27T05:59:56.825Z,77.14
2018-05-27T06:02:24.453Z,77.08
2018-05-27T06:04:52.029Z,76.67
2018-05-27T06:07:19.609Z,77.46
2018-05-27T06:09:47.195Z,75.65
2018-05-27T06:12:14.792Z,75.58
2018-05-27T06:14:42.417Z,75.17
2018-05-27T06:17:09.997Z,75.88
2018-05-27T06:19:37.690Z,74.44
2018-05-27T06:22:05.294Z,75.40
2018-05-27T06:24:32.955Z,74.81
2018-05-27T06:27:00.544Z,73.63
2018-05-27T06:29:28.129Z,73.06
2018-05-27T06:31:55.853Z,72.95
2018-05-27T06:34:23.430Z,72.54
2018-05-27T06:36:51.019Z,69.21
2018-05-27T06:39:18.602Z,68.96
2018-05-27T06:41:46.291Z,70.75
2018-05-27T06:44:13.967Z,70.13
2018-05-27T06:46:42.382Z,67.64
2018-05-27T06:49:09.966Z,67.79
2018-05-27T06:51:37.610Z,69.25
2018-05-27T06:54:05.198Z,68.85
2018-05-27T06:56:32.996Z,68.79
2018-05-27T06:59:00.588Z,66.85
2018-05-27T07:01:28.205Z,67.91
2018-05-27T07:03:55.873Z,67.25
2018-05-27T07:06:23.505Z,68.01
2018-05-27T07:08:51.428Z,66.72
2018-05-27T07:11:21.941Z,65.05
2018-05-27T07:13:49.697Z,66.40
2018-05-27T07:16:17.321Z,66.21
2018-05-27T07:18:44.918Z,65.48
2018-05-27T07:21:12.553Z,65.80
2018-05-27T07:23:40.134Z,66.73
2018-05-27T07:26:07.717Z,64.34
2018-05-27T07:28:35.297Z,65.60
2018-05-27T07:31:02.931Z,63.83
2018-05-27T07:33:30.645Z,61.88
2018-05-27T07:35:58.235Z,61.63
2018-05-27T07:38:25.814Z,61.13
2018-05-27T07:40:53.433Z,58.30
2018-05-27T07:43:21.014Z,60.87
2018-05-27T07:45:48.627Z,59.91
2018-05-27T07:48:16.211Z,58.50
2018-05-27T07:50:43.841Z,59.18
2018-05-27T07:53:11.421Z,58.05
2018-05-27T07:55:39.049Z,58.21
2018-05-27T07:58:06.635Z,56.79
2018-05-27T08:00:34.271Z,58.23
2018-05-27T08:03:01.850Z,55.77
2018-05-27T08:05:29.441Z,57.61
2018-05-27T08:07:57.021Z,58.13
2018-05-27T08:10:24.601Z,55.82
2018-05-27T08:12:52.224Z,56.80
2018-05-27T08:15:19.807Z,54.93
2018-05-27T08:17:47.425Z,55.77
2018-05-27T08:20:15.016Z,56.75
2018-05-27T08:22:42.595Z,55.12
2018-05-27T08:25:10.173Z,56.09
2018-05-27T08:27:37.756Z,56.09
2018-05-27T08:30:05.344Z,54.42
2018-05-27T08:32:32.926Z,55.75
2018-05-27T08:35:00.561Z,53.55
2018-05-27T08:37:28.112Z,54.93
2018-05-27T08:39:55.684Z,53.62
2018-05-27T08:42:29.594Z,51.63
2018-05-27T08:44:57.211Z,53.28
2018-05-27T08:47:24.881Z,49.88
2018-05-27T08:49:52.466Z,51.45
2018-05-27T08:52:20.041Z,51.15
2018-05-27T08:54:47.620Z,51.40
2018-05-27T08:57:15.225Z,50.72
2018-05-27T08:59:42.853Z,50.16
2018-05-27T09:02:10.544Z,50.08
2018-05-27T09:04:38.186Z,47.84
2018-05-27T09:07:05.768Z,49.38
2018-05-27T09:09:33.348Z,48.08
2018-05-27T09:12:00.922Z,49.84
2018-05-27T09:14:28.496Z,50.67
2018-05-27T09:16:56.071Z,47.38
2018-05-27T09:19:23.654Z,46.79
2018-05-27T09:21:51.230Z,48.05
2018-05-27T09:24:18.804Z,47.92
2018-05-27T09:26:46.390Z,44.52
2018-05-27T09:29:13.962Z,45.45
2018-05-27T09:31:41.547Z,45.57
2018-05-27T09:34:09.117Z,44.76
2018-05-27T09:36:36.685Z,46.62
2018-05-27T09:39:04.305Z,45.85
2018-05-27T09:41:31.969Z,45.75
2018-05-27T09:43:59.604Z,45.91
2018-05-27T09:46:27.262Z,47.15
2018-05-27T09:48:54.849Z,45.63
2018-05-27T09:51:22.528Z,45.63
2018-05-27T09:53:50.129Z,42.90
2018-05-27T09:56:17.775Z,43.60
2018-05-27T09:58:45.438Z,44.56
2018-05-27T10:01:13.030Z,42.40
2018-05-27T10:03:40.614Z,43.29
2018-05-27T10:06:08.263Z,44.58
2018-05-27T10:08:35.925Z,43.02
2018-05-27T10:11:03.586Z,43.41
2018-05-27T10:13:31.178Z,43.93
2018-05-27T10:15:58.863Z,43.66
2018-05-27T10:18:26.577Z,42.10
2018-05-27T10:20:54.179Z,41.66
2018-05-27T10:23:21.892Z,43.81
2018-05-27T10:25:49.626Z,41.03
2018-05-27T10:28:17.221Z,39.95
2018-05-27T10:30:44.805Z,39.53
2018-05-27T10:33:12.424Z,39.00
2018-05-27T10:35:40.006Z,40.57
2018-05-27T10:38:07.626Z,40.70
2018-05-27T10:40:35.244Z,39.77
2018-05-27T10:43:02.873Z,40.58
2018-05-27T10:45:30.449Z,37.44
2018-05-27T10:47:58.029Z,42.38
2018-05-27T10:50:25.609Z,39.43
2018-05-27T10:52:53.202Z,37.72
2018-05-27T10:55:20.804Z,35.95
2018-05-27T10:57:48.380Z,35.69
2018-05-27T11:00:15.965Z,34.82
2018-05-27T11:02:43.697Z,39.83
2018-05-27T11:05:11.285Z,37.51
2018-05-27T11:07:38.863Z,38.51
2018-05-27T11:10:06.581Z,38.26
2018-05-27T11:12:34.158Z,36.20
2018-05-27T11:15:01.856Z,36.15
2018-05-27T11:17:29.486Z,37.62
2018-05-27T11:19:57.079Z,34.83
2018-05-27T11:22:24.710Z,38.80
2018-05-27T11:24:52.286Z,34.79
2018-05-27T11:27:19.919Z,38.21
2018-05-27T11:29:47.612Z,39.93
2018-05-27T11:32:15.239Z,40.21
2018-05-27T11:34:42.818Z,41.45
2018-05-27T11:37:10.502Z,39.59
2018-05-27T11:39:38.082Z,41.37
2018-05-27T11:42:05.661Z,41.71
2018-05-27T11:44:33.245Z,40.52
2018-05-27T11:47:00.830Z,39.98
2018-05-27T11:49:28.404Z,40.55
2018-05-27T11:51:55.996Z,44.32
2018-05-27T11:54:23.577Z,41.16
2018-05-27T11:56:51.163Z,41.16
2018-05-27T11:59:18.748Z,39.58
2018-05-27T12:01:46.348Z,41.41
2018-05-27T12:04:13.937Z,44.50
2018-05-27T12:06:41.512Z,43.65
2018-05-27T12:09:09.125Z,44.08
2018-05-27T12:11:36.718Z,41.99
2018-05-27T12:14:04.385Z,43.16
2018-05-27T12:16:32.049Z,40.66
2018-05-27T12:18:59.633Z,44.04
2018-05-27T12:21:27.210Z,43.08
2018-05-27T12:23:54.813Z,41.53
2018-05-27T12:26:22.395Z,39.75
2018-05-27T12:28:49.986Z,42.42
2018-05-27T12:31:17.564Z,40.95
2018-05-27T12:33:45.206Z,43.76
2018-05-27T12:36:12.790Z,40.92
2018-05-27T12:38:40.379Z,43.90
2018-05-27T12:41:07.967Z,42.73
2018-05-27T12:43:35.553Z,45.89
2018-05-27T12:46:03.133Z,45.61
2018-05-27T12:48:30.720Z,52.89
2018-05-27T12:50:58.330Z,62.03
2018-05-27T12:53:25.922Z,61.34
2018-05-27T12:55:53.512Z,63.08
2018-05-27T12:58:21.094Z,64.83
2018-05-27T13:00:48.708Z,68.12
2018-05-27T13:03:16.293Z,68.24
2018-05-27T13:05:43.928Z,74.64
2018-05-27T13:08:11.513Z,71.18
2018-05-27T13:10:39.144Z,73.39
2018-05-27T13:13:07.651Z,71.57
2018-05-27T13:15:35.280Z,70.56
2018-05-27T13:18:02.864Z,72.87
2018-05-27T13:20:30.571Z,77.37
2018-05-27T13:22:58.166Z,72.21
2018-05-27T13:25:25.800Z,67.18
2018-05-27T13:27:53.391Z,68.29
2018-05-27T13:30:20.980Z,70.49
2018-05-27T13:32:48.582Z,69.97
2018-05-27T13:35:16.171Z,64.30
2018-05-27T13:37:43.790Z,66.63
2018-05-27T13:40:11.383Z,65.24
2018-05-27T13:42:39.022Z,65.22
2018-05-27T13:45:07.285Z,63.32
2018-05-27T13:47:34.922Z,68.07
2018-05-27T13:50:03.357Z,63.86
2018-05-27T13:52:31.841Z,60.76
2018-05-27T13:54:59.429Z,60.29
2018-05-27T13:57:27.015Z,60.71
2018-05-27T13:59:54.639Z,61.00
2018-05-27T14:02:22.227Z,62.80
2018-05-27T14:04:49.904Z,63.12
2018-05-27T14:07:17.473Z,58.17
2018-05-27T14:09:45.214Z,60.32
2018-05-27T14:12:12.803Z,58.28
2018-05-27T14:14:40.439Z,51.92
2018-05-27T14:17:08.034Z,55.49
2018-05-27T14:19:35.622Z,51.01
2018-05-27T14:22:03.274Z,47.60
2018-05-27T14:24:30.933Z,44.49
2018-05-27T14:26:58.504Z,45.05
2018-05-27T14:29:26.090Z,44.05
2018-05-27T14:31:53.668Z,41.35
2018-05-27T14:34:21.253Z,43.28
2018-05-27T14:36:48.835Z,46.86
2018-05-27T14:39:16.422Z,45.86
2018-05-27T14:41:44.037Z,44.43
2018-05-27T14:44:11.641Z,44.46
2018-05-27T14:46:39.258Z,47.07
2018-05-27T14:49:06.833Z,45.32
2018-05-27T14:51:34.446Z,44.22
2018-05-27T14:54:02.045Z,43.88
2018-05-27T14:56:29.671Z,41.33
2018-05-27T14:58:57.254Z,42.31
2018-05-27T15:01:24.825Z,35.33
2018-05-27T15:03:52.398Z,34.74
2018-05-27T15:06:19.982Z,40.18
2018-05-27T15:08:47.557Z,38.53
2018-05-27T15:11:15.146Z,41.75
2018-05-27T15:13:42.733Z,36.94
2018-05-27T15:16:10.316Z,48.91
2018-05-27T15:18:37.939Z,41.73
2018-05-27T15:21:05.513Z,45.84
2018-05-27T15:23:33.100Z,45.10
2018-05-27T15:26:00.681Z,47.37
2018-05-27T15:28:28.269Z,43.41
2018-05-27T15:30:55.846Z,50.73
2018-05-27T15:33:23.417Z,43.55
2018-05-27T15:35:51.038Z,43.07
2018-05-27T15:38:18.613Z,42.85
2018-05-27T15:40:46.193Z,43.01
2018-05-27T15:43:13.773Z,48.63
2018-05-27T15:45:41.347Z,46.84
2018-05-27T15:48:08.922Z,44.88
2018-05-27T15:50:36.506Z,44.34
2018-05-27T15:53:04.087Z,45.65
2018-05-27T15:55:31.670Z,45.97
2018-05-27T15:57:59.294Z,49.83
2018-05-27T16:00:26.879Z,46.55
2018-05-27T16:02:54.458Z,50.35
2018-05-27T16:05:22.064Z,49.57
2018-05-27T16:07:49.638Z,46.88
2018-05-27T16:10:17.219Z,52.31
2018-05-27T16:12:44.794Z,48.81
2018-05-27T16:15:12.369Z,47.99
2018-05-27T16:17:39.946Z,46.31
2018-05-27T16:20:07.533Z,45.42
2018-05-27T16:22:35.110Z,46.47
2018-05-27T16:25:02.702Z,45.27
2018-05-27T16:27:30.283Z,47.33
2018-05-27T16:29:57.910Z,48.71
2018-05-27T16:32:25.538Z,53.48
2018-05-27T16:34:53.101Z,49.53
2018-05-27T16:37:20.678Z,46.91
2018-05-27T16:39:48.259Z,48.94
2018-05-27T16:42:15.838Z,48.78
2018-05-27T16:44:43.448Z,49.06
2018-05-27T16:47:11.035Z,50.51
2018-05-27T16:49:38.653Z,49.66
2018-05-27T16:52:06.243Z,49.97
2018-05-27T16:54:33.867Z,51.10
2018-05-27T16:57:01.447Z,49.58
2018-05-27T16:59:29.057Z,51.77
2018-05-27T17:01:56.677Z,49.43
2018-05-27T17:04:24.257Z,49.35
2018-05-27T17:06:51.845Z,50.10
2018-05-27T17:09:19.479Z,49.00
2018-05-27T17:11:47.107Z,50.68
2018-05-27T17:14:14.723Z,48.94
2018-05-27T17:16:42.297Z,51.08
2018-05-27T17:19:09.873Z,51.12
2018-05-27T17:21:37.486Z,51.91
2018-05-27T17:24:05.114Z,51.82
2018-05-27T17:26:32.829Z,50.07
2018-05-27T17:29:00.405Z,51.05
2018-05-27T17:31:28.006Z,51.28
2018-05-27T17:33:55.629Z,50.11
2018-05-27T17:36:23.925Z,51.88
2018-05-27T17:38:51.541Z,51.00
2018-05-27T17:41:19.125Z,52.23
2018-05-27T17:43:46.764Z,51.93
2018-05-27T17:46:14.346Z,52.28
2018-05-27T17:48:41.953Z,53.59
2018-05-27T17:51:09.537Z,53.88
2018-05-27T17:53:37.117Z,55.53
2018-05-27T17:56:04.694Z,54.68
2018-05-27T17:58:32.269Z,56.61
2018-05-27T18:00:59.843Z,56.42
2018-05-27T18:03:27.417Z,56.03
2018-05-27T18:05:55.030Z,56.36
2018-05-27T18:08:22.641Z,56.80
2018-05-27T18:10:50.229Z,56.75
2018-05-27T18:13:17.807Z,57.25
2018-05-27T18:15:45.384Z,57.57
2018-05-27T18:18:13.019Z,57.72
2018-05-27T18:20:40.688Z,59.95
2018-05-27T18:23:08.314Z,59.69
2018-05-27T18:25:36.146Z,59.55
2018-05-27T18:28:03.998Z,60.10
2018-05-27T18:30:32.385Z,59.91
2018-05-27T18:33:00.039Z,60.60
2018-05-27T18:35:27.617Z,60.94
2018-05-27T18:37:55.195Z,62.35
2018-05-27T18:40:23.015Z,62.30
2018-05-27T18:42:50.598Z,63.67
2018-05-27T18:45:18.182Z,63.95
2018-05-27T18:47:45.764Z,63.76
2018-05-27T18:50:13.458Z,64.05
2018-05-27T18:52:41.087Z,65.16
2018-05-27T18:55:08.750Z,65.44
2018-05-27T18:57:36.593Z,65.80
2018-05-27T19:00:04.228Z,66.16
2018-05-27T19:02:31.820Z,67.13
2018-05-27T19:04:59.657Z,67.19
2018-05-27T19:07:27.258Z,68.47
2018-05-27T19:09:54.956Z,68.93
2018-05-27T19:12:22.640Z,68.33
2018-05-27T19:14:50.226Z,68.77
2018-05-27T19:17:17.867Z,68.94
2018-05-27T19:19:45.484Z,69.23
2018-05-27T19:22:13.301Z,70.44
2018-05-27T19:24:40.938Z,69.56
2018-05-27T19:27:08.527Z,70.44
2018-05-27T19:29:36.127Z,70.27
2018-05-27T19:32:03.761Z,70.41
2018-05-27T19:34:31.374Z,70.89
2018-05-27T19:36:59.073Z,71.28
2018-05-27T19:39:28.842Z,70.69
2018-05-27T19:41:56.553Z,72.02
2018-05-27T19:44:24.215Z,71.80
2018-05-27T19:46:51.810Z,72.15
2018-05-27T19:49:19.467Z,71.57
2018-05-27T19:51:47.045Z,72.55
2018-05-27T19:54:14.659Z,72.63
2018-05-27T19:56:42.274Z,72.00
2018-05-27T19:59:09.934Z,71.65
2018-05-27T20:01:37.667Z,72.78
2018-05-27T20:04:05.257Z,73.07
2018-05-27T20:06:32.942Z,74.57
2018-05-27T20:09:00.614Z,73.44
2018-05-27T20:11:28.366Z,74.06
2018-05-27T20:13:56.005Z,75.80
2018-05-27T20:16:23.725Z,74.66
2018-05-27T20:18:51.322Z,75.58
2018-05-27T20:21:18.943Z,75.03
2018-05-27T20:23:46.578Z,74.68
2018-05-27T20:26:14.408Z,75.16
2018-05-27T20:28:42.035Z,75.31
2018-05-27T20:31:11.114Z,75.31
2018-05-27T20:33:39.031Z,75.85
2018-05-27T20:36:06.894Z,75.54
2018-05-27T20:38:34.570Z,76.11
2018-05-27T20:43:29.321Z,76.84
2018-05-27T20:45:56.945Z,75.89
2018-05-27T20:48:24.576Z,75.78
2018-05-27T20:50:52.163Z,77.59
2018-05-27T20:53:19.970Z,76.94
2018-05-27T20:55:47.597Z,76.79
2018-05-27T20:58:15.286Z,76.25
2018-05-27T21:00:43.008Z,77.11
2018-05-27T21:03:10.593Z,76.62
2018-05-27T21:05:38.214Z,76.78
2018-05-27T21:08:05.806Z,76.96
2018-05-27T21:10:33.417Z,77.48
2018-05-27T21:13:01.150Z,78.09
2018-05-27T21:15:28.884Z,77.97
2018-05-27T21:17:56.566Z,79.24
2018-05-27T21:20:24.257Z,77.90
2018-05-27T21:22:51.838Z,77.74
2018-05-27T21:25:19.485Z,78.01
2018-05-27T21:27:47.153Z,78.95
2018-05-27T21:30:14.738Z,79.41
2018-05-27T21:32:42.370Z,79.22
2018-05-27T21:35:10.002Z,79.62
2018-05-27T21:37:37.630Z,80.10
2018-05-27T21:40:05.258Z,79.93
2018-05-27T21:42:32.870Z,79.42
2018-05-27T21:45:00.458Z,79.51
2018-05-27T21:47:28.080Z,79.84
2018-05-27T21:49:55.663Z,79.86
2018-05-27T21:52:23.953Z,79.62
2018-05-27T21:54:51.645Z,79.86
2018-05-27T21:57:19.237Z,80.33
2018-05-27T21:59:46.869Z,80.17
2018-05-27T22:02:14.534Z,80.08
2018-05-27T22:04:42.125Z,80.68
2018-05-27T22:07:09.858Z,80.89
2018-05-27T22:09:37.449Z,81.43
2018-05-27T22:12:05.043Z,81.32
2018-05-27T22:14:32.634Z,81.46
2018-05-27T22:17:00.224Z,81.52
2018-05-27T22:19:27.849Z,82.03
2018-05-27T22:21:55.448Z,81.48
2018-05-27T22:24:23.143Z,81.48
2018-05-27T22:26:50.729Z,81.68
2018-05-27T22:29:18.360Z,81.99
2018-05-27T22:31:45.982Z,82.08
2018-05-27T22:34:13.575Z,82.38
2018-05-27T22:36:41.165Z,82.23
2018-05-27T22:39:08.769Z,83.14
2018-05-27T22:41:36.357Z,82.50
2018-05-27T22:44:03.945Z,82.89
2018-05-27T22:46:31.533Z,83.63
2018-05-27T22:48:59.119Z,83.53
2018-05-27T22:51:26.739Z,84.01
2018-05-27T22:53:54.433Z,84.55
2018-05-27T22:56:22.046Z,84.30
2018-05-27T22:58:49.628Z,84.11
2018-05-27T23:01:17.214Z,84.41
2018-05-27T23:03:44.806Z,85.11
2018-05-27T23:06:12.394Z,85.09
2018-05-27T23:08:39.979Z,84.88
2018-05-27T23:11:07.566Z,85.10
2018-05-27T23:13:35.149Z,85.33
2018-05-27T23:16:02.732Z,86.04
2018-05-27T23:18:30.358Z,85.85
2018-05-27T23:20:57.942Z,85.94
2018-05-27T23:23:25.530Z,86.21
2018-05-27T23:25:53.116Z,86.30
2018-05-27T23:28:20.702Z,86.77
2018-05-27T23:30:48.293Z,86.55
2018-05-27T23:33:15.876Z,86.90
2018-05-27T23:35:43.461Z,87.14
2018-05-27T23:38:11.268Z,86.97
2018-05-27T23:40:39.011Z,87.49
2018-05-27T23:43:06.672Z,87.43
2018-05-27T23:45:34.337Z,86.91
2018-05-27T23:48:01.920Z,87.08
2018-05-27T23:50:29.718Z,87.56
2018-05-27T23:52:57.324Z,87.33
2018-05-27T23:55:24.985Z,87.11
2018-05-27T23:57:52.612Z,87.70
